Time;durP1;ratioP1;P1;durP2;ratioP2;P2;SDS_P1;SDS_P2;PMS_P1;PMS_P2;Temp;Humidity;BMP_temperature;BMP_pressure;BME280_temperature;BME280_humidity;BME280_pressure;Samples;Min_cycle;Max_cycle;Signal;HPM_P1;HPM_P2
2022/08/06 00:00:34;;;;;;;4.10;2.75;;;27.60;48.80;;;;;;5029135;28;20052;-48
2022/08/06 00:02:59;;;;;;;4.25;3.03;;;27.60;48.70;;;;;;5031386;28;20621;-51
2022/08/06 00:05:26;;;;;;;4.70;3.15;;;27.60;48.70;;;;;;5043634;28;20037;-49
2022/08/06 00:07:51;;;;;;;3.88;2.90;;;27.60;48.80;;;;;;5039456;28;20061;-50
2022/08/06 00:10:18;;;;;;;3.90;3.00;;;27.60;48.80;;;;;;5024142;28;20517;-49
2022/08/06 00:12:45;;;;;;;4.55;3.00;;;27.50;48.90;;;;;;5024453;28;20033;-50
2022/08/06 00:15:12;;;;;;;5.35;3.38;;;27.50;49.00;;;;;;5024039;28;20064;-50
2022/08/06 00:17:38;;;;;;;5.10;3.50;;;27.50;49.00;;;;;;5024299;28;20045;-51
2022/08/06 00:20:08;;;;;;;4.03;3.05;;;27.50;49.50;;;;;;5024518;28;20105;-49
2022/08/06 00:22:34;;;;;;;4.57;3.35;;;27.40;49.10;;;;;;5024177;28;20040;-49
2022/08/06 00:24:59;;;;;;;4.18;3.45;;;27.40;49.40;;;;;;5024176;28;20030;-49
2022/08/06 00:27:25;;;;;;;4.55;3.47;;;27.40;49.40;;;;;;5023921;28;20151;-50
2022/08/06 00:29:50;;;;;;;4.25;2.78;;;27.40;49.60;;;;;;5024172;28;20033;-49
2022/08/06 00:32:16;;;;;;;3.78;3.10;;;27.40;49.60;;;;;;5024603;28;20047;-48
2022/08/06 00:34:42;;;;;;;4.60;3.60;;;27.40;49.60;;;;;;5024014;28;20818;-48
2022/08/06 00:37:07;;;;;;;3.92;3.10;;;27.40;49.60;;;;;;5024263;28;20462;-48
2022/08/06 00:39:33;;;;;;;4.05;3.13;;;27.40;49.60;;;;;;5023372;28;20033;-50
2022/08/06 00:41:59;;;;;;;4.10;3.20;;;27.40;49.60;;;;;;5024065;28;20033;-49
2022/08/06 00:44:25;;;;;;;4.93;3.30;;;27.30;49.70;;;;;;5024219;28;20237;-48
2022/08/06 00:46:51;;;;;;;3.88;3.00;;;27.40;49.80;;;;;;5023553;28;20526;-49
2022/08/06 00:49:18;;;;;;;3.70;2.80;;;27.30;49.90;;;;;;5024174;28;20033;-49
2022/08/06 00:51:43;;;;;;;5.03;3.38;;;27.30;50.00;;;;;;5023830;28;20117;-50
2022/08/06 00:54:10;;;;;;;4.35;2.88;;;27.30;50.00;;;;;;5024127;28;20112;-50
2022/08/06 00:56:35;;;;;;;4.63;3.20;;;27.30;50.00;;;;;;5022668;28;20441;-49
2022/08/06 00:59:01;;;;;;;3.83;2.92;;;27.30;49.90;;;;;;5024299;28;20026;-49
2022/08/06 01:01:27;;;;;;;4.75;3.45;;;27.30;50.00;;;;;;5023836;28;20662;-49
2022/08/06 01:03:52;;;;;;;5.13;3.10;;;27.20;50.00;;;;;;5023239;28;20029;-51
2022/08/06 01:06:19;;;;;;;4.88;2.90;;;27.20;50.00;;;;;;5023590;28;20061;-48
2022/08/06 01:08:45;;;;;;;4.43;3.20;;;27.20;50.10;;;;;;5032039;28;20418;-49
2022/08/06 01:11:11;;;;;;;4.00;2.97;;;27.20;50.00;;;;;;5042914;28;20040;-49
2022/08/06 01:13:37;;;;;;;4.85;3.20;;;27.20;50.20;;;;;;5042964;28;20035;-49
2022/08/06 01:16:47;;;;;;;3.92;3.00;;;27.20;50.20;;;;;;5023086;28;20038;-50
2022/08/06 01:19:25;;;;;;;4.20;2.97;;;27.20;50.10;;;;;;5023075;28;20156;-51
2022/08/06 01:22:35;;;;;;;6.18;3.25;;;27.20;50.20;;;;;;5023159;28;20025;-51
2022/08/06 01:25:28;;;;;;;5.63;3.35;;;27.10;50.40;;;;;;5014057;28;20038;-52
2022/08/06 01:28:04;;;;;;;4.85;3.67;;;27.10;50.80;;;;;;5023335;28;20121;-50
2022/08/06 01:30:40;;;;;;;5.15;3.50;;;27.10;51.20;;;;;;5023457;28;20029;-49
2022/08/06 01:33:12;;;;;;;3.83;3.03;;;27.10;51.40;;;;;;5023055;28;20037;-50
2022/08/06 01:35:47;;;;;;;3.78;3.03;;;27.10;51.60;;;;;;5034366;28;20033;-48
2022/08/06 01:38:22;;;;;;;4.18;3.45;;;27.00;51.70;;;;;;5039354;28;20033;-50
2022/08/06 01:40:50;;;;;;;5.07;3.30;;;27.00;51.80;;;;;;5023099;28;20502;-50
2022/08/06 01:43:19;;;;;;;4.63;3.13;;;27.00;51.90;;;;;;5038297;28;20021;-54
2022/08/06 01:45:46;;;;;;;4.20;3.08;;;26.90;51.50;;;;;;5023117;28;20025;-48
2022/08/06 01:48:26;;;;;;;4.40;3.58;;;26.90;51.60;;;;;;5023579;28;20696;-50
2022/08/06 01:50:57;;;;;;;5.18;3.17;;;26.90;51.70;;;;;;5026770;28;20100;-50
2022/08/06 01:53:29;;;;;;;4.60;2.95;;;26.90;51.70;;;;;;5038342;28;20029;-49
2022/08/06 01:55:58;;;;;;;5.13;3.10;;;26.80;52.00;;;;;;5040661;28;20128;-50
2022/08/06 01:58:34;;;;;;;4.13;2.90;;;26.80;52.20;;;;;;5023392;28;20779;-49
2022/08/06 02:01:03;;;;;;;4.35;3.33;;;26.80;52.10;;;;;;5029995;28;20048;-49
2022/08/06 02:03:44;;;;;;;4.28;3.15;;;26.70;52.20;;;;;;5041301;28;20029;-51
2022/08/06 02:06:14;;;;;;;4.68;3.13;;;26.70;52.40;;;;;;5042097;28;20087;-49
2022/08/06 02:08:42;;;;;;;4.70;2.88;;;26.70;52.50;;;;;;5035887;28;20061;-50
2022/08/06 02:11:10;;;;;;;3.97;2.63;;;26.60;52.30;;;;;;5022984;28;20025;-50
2022/08/06 02:13:38;;;;;;;4.32;3.00;;;26.60;52.00;;;;;;5022310;28;20061;-50
2022/08/06 02:16:06;;;;;;;5.25;3.35;;;26.60;52.00;;;;;;5024343;28;20044;-51
2022/08/06 02:18:36;;;;;;;3.65;2.90;;;26.60;52.60;;;;;;5026712;28;20083;-49
2022/08/06 02:21:06;;;;;;;3.83;2.95;;;26.60;52.70;;;;;;5026682;28;20037;-49
2022/08/06 02:23:33;;;;;;;5.88;3.20;;;26.50;53.10;;;;;;5025912;28;20025;-50
2022/08/06 02:26:00;;;;;;;3.80;2.92;;;26.50;53.50;;;;;;5026497;28;20769;-50
2022/08/06 02:28:27;;;;;;;4.65;3.28;;;26.50;53.80;;;;;;5026395;28;20478;-51
2022/08/06 02:30:56;;;;;;;3.67;2.80;;;26.40;54.10;;;;;;5026344;28;20033;-48
2022/08/06 02:33:22;;;;;;;3.90;2.90;;;26.40;54.30;;;;;;5026581;28;20033;-49
2022/08/06 02:35:56;;;;;;;3.78;2.65;;;26.40;55.00;;;;;;5025909;28;20029;-48
2022/08/06 02:38:35;;;;;;;5.20;3.40;;;26.30;55.00;;;;;;5026461;28;20117;-49
2022/08/06 02:41:11;;;;;;;4.70;2.92;;;26.30;55.10;;;;;;5038922;28;20626;-49
2022/08/06 02:43:40;;;;;;;3.60;2.65;;;26.10;55.30;;;;;;5046298;28;20048;-51
2022/08/06 02:46:20;;;;;;;4.70;3.08;;;26.10;55.80;;;;;;5040708;28;20026;-50
2022/08/06 02:48:52;;;;;;;4.78;3.00;;;26.00;56.10;;;;;;5026158;28;20079;-49
2022/08/06 02:51:21;;;;;;;3.75;2.67;;;26.00;56.30;;;;;;5025901;28;20057;-51
2022/08/06 02:54:04;;;;;;;3.92;2.67;;;25.90;56.00;;;;;;5025893;28;20040;-49
2022/08/06 02:56:31;;;;;;;4.72;3.08;;;25.90;56.40;;;;;;5025590;28;20049;-50
2022/08/06 02:59:00;;;;;;;4.80;2.92;;;25.80;56.80;;;;;;5036367;28;20048;-49
2022/08/06 03:01:34;;;;;;;3.67;2.60;;;25.70;57.10;;;;;;5045767;28;20025;-50
2022/08/06 03:04:04;;;;;;;3.85;2.90;;;25.70;57.40;;;;;;5045415;28;20100;-50
2022/08/06 03:06:33;;;;;;;4.00;2.97;;;25.70;58.00;;;;;;5025908;28;20026;-50
2022/08/06 03:09:01;;;;;;;4.95;3.38;;;25.70;57.90;;;;;;5025711;28;20036;-51
2022/08/06 03:11:32;;;;;;;6.10;3.40;;;25.70;58.40;;;;;;5025721;28;20049;-49
2022/08/06 03:14:05;;;;;;;3.67;2.97;;;25.70;58.40;;;;;;5024169;28;20041;-50
2022/08/06 03:16:34;;;;;;;4.30;2.75;;;25.70;58.80;;;;;;5042889;28;20056;-50
2022/08/06 03:19:01;;;;;;;5.32;3.85;;;25.70;59.40;;;;;;5045024;28;20021;-49
2022/08/06 03:21:28;;;;;;;3.83;2.90;;;25.60;59.70;;;;;;5044407;28;20078;-49
2022/08/06 03:23:55;;;;;;;5.80;4.13;;;25.50;59.90;;;;;;5042696;28;20102;-50
2022/08/06 03:26:24;;;;;;;5.15;3.92;;;25.50;60.40;;;;;;5043487;28;20730;-51
2022/08/06 03:28:51;;;;;;;5.07;3.05;;;25.40;60.80;;;;;;5044334;28;20132;-48
2022/08/06 03:31:17;;;;;;;4.78;3.50;;;25.40;60.80;;;;;;5044656;28;20130;-51
2022/08/06 03:33:43;;;;;;;4.30;3.05;;;25.40;61.20;;;;;;5044299;28;20032;-51
2022/08/06 03:36:10;;;;;;;4.38;3.35;;;25.30;61.40;;;;;;5043127;28;20035;-50
2022/08/06 03:38:43;;;;;;;4.60;3.65;;;25.30;61.20;;;;;;5042438;28;20034;-49
2022/08/06 03:41:08;;;;;;;;;;;25.20;61.60;;;;;;5043652;28;20035;-50
2022/08/06 03:43:35;;;;;;;6.03;3.33;;;25.20;61.80;;;;;;5043590;28;20495;-50
2022/08/06 03:46:03;;;;;;;4.03;3.38;;;25.20;61.60;;;;;;5043912;28;20096;-49
2022/08/06 03:48:34;;;;;;;5.47;3.53;;;25.20;61.70;;;;;;5044468;28;20056;-48
2022/08/06 03:51:03;;;;;;;5.47;3.45;;;25.10;62.30;;;;;;5043143;28;20049;-50
2022/08/06 03:53:34;;;;;;;4.40;3.50;;;25.10;62.30;;;;;;5041799;28;20029;-50
2022/08/06 03:56:02;;;;;;;4.60;3.92;;;25.10;62.60;;;;;;5041971;28;20099;-49
2022/08/06 03:58:29;;;;;;;6.35;4.00;;;25.00;63.60;;;;;;5042821;28;20295;-49
2022/08/06 04:01:19;;;;;;;6.82;3.90;;;25.00;64.20;;;;;;5044270;28;20603;-51
2022/08/06 04:03:46;;;;;;;5.30;4.05;;;24.90;64.20;;;;;;5045148;28;20039;-50
2022/08/06 04:06:12;;;;;;;5.78;4.05;;;24.80;64.60;;;;;;5025829;28;20105;-48
2022/08/06 04:08:40;;;;;;;4.35;3.30;;;24.80;64.30;;;;;;5024528;28;20029;-49
2022/08/06 04:11:07;;;;;;;5.18;3.88;;;24.70;64.50;;;;;;5023210;28;20056;-50
2022/08/06 04:13:34;;;;;;;4.72;3.95;;;24.70;64.90;;;;;;5024342;28;20049;-49
2022/08/06 04:16:01;;;;;;;4.90;3.92;;;24.70;64.50;;;;;;5024642;28;20038;-49
2022/08/06 04:18:34;;;;;;;5.38;3.80;;;24.70;64.50;;;;;;5024569;28;20059;-49
2022/08/06 04:21:02;;;;;;;5.45;3.70;;;24.70;64.60;;;;;;5024575;28;20459;-48
2022/08/06 04:23:29;;;;;;;4.75;4.05;;;24.70;64.10;;;;;;5039331;28;20082;-49
2022/08/06 04:25:56;;;;;;;5.15;3.88;;;24.80;64.40;;;;;;5043753;28;20636;-52
2022/08/06 04:28:24;;;;;;;5.00;3.75;;;24.80;63.60;;;;;;5036725;28;20537;-49
2022/08/06 04:30:51;;;;;;;4.50;3.55;;;24.80;63.50;;;;;;5023370;28;20041;-48
2022/08/06 04:33:21;;;;;;;5.13;4.10;;;24.90;63.50;;;;;;5024030;28;20113;-49
2022/08/06 04:35:47;;;;;;;5.68;3.65;;;24.90;63.70;;;;;;5023085;28;20770;-49
2022/08/06 04:38:16;;;;;;;5.05;3.40;;;24.90;63.90;;;;;;5023780;28;20053;-50
2022/08/06 04:40:42;;;;;;;5.70;4.07;;;24.90;63.30;;;;;;5033189;28;20148;-49
2022/08/06 04:43:10;;;;;;;5.22;4.07;;;24.90;64.00;;;;;;5043688;28;20170;-50
2022/08/06 04:45:44;;;;;;;5.30;3.53;;;24.90;64.40;;;;;;5042968;28;20035;-49
2022/08/06 04:48:11;;;;;;;6.22;4.10;;;24.80;64.50;;;;;;5042276;28;20024;-49
2022/08/06 04:50:38;;;;;;;7.25;4.00;;;24.80;64.30;;;;;;5043682;28;20047;-51
2022/08/06 04:53:17;;;;;;;4.70;4.03;;;24.80;64.90;;;;;;5042778;28;20036;-50
2022/08/06 04:55:45;;;;;;;5.82;3.97;;;24.80;64.50;;;;;;5022721;28;20038;-51
2022/08/06 04:58:13;;;;;;;5.75;3.75;;;24.70;64.70;;;;;;5021946;28;20022;-51
2022/08/06 05:00:42;;;;;;;4.93;3.72;;;24.80;64.70;;;;;;5023387;28;20025;-50
2022/08/06 05:03:08;;;;;;;4.80;3.50;;;24.70;64.90;;;;;;5024119;28;20465;-48
2022/08/06 05:05:50;;;;;;;5.35;4.20;;;24.70;64.90;;;;;;5022123;28;20029;-49
2022/08/06 05:08:17;;;;;;;5.63;4.25;;;24.70;65.00;;;;;;5022937;28;20021;-50
2022/08/06 05:11:02;;;;;;;4.50;3.70;;;24.70;65.50;;;;;;5042522;28;20045;-50
2022/08/06 05:13:34;;;;;;;4.88;4.03;;;24.70;65.20;;;;;;5042860;28;20052;-51
2022/08/06 05:16:04;;;;;;;4.63;4.13;;;24.60;65.60;;;;;;5042626;28;20045;-49
2022/08/06 05:18:43;;;;;;;5.15;4.47;;;24.60;65.70;;;;;;5042436;28;20025;-50
2022/08/06 05:21:14;;;;;;;6.30;4.15;;;24.60;65.90;;;;;;5032786;28;20127;-49
2022/08/06 05:23:49;;;;;;;5.10;3.95;;;24.60;66.20;;;;;;5039425;28;20021;-50
2022/08/06 05:26:16;;;;;;;5.15;3.90;;;24.60;66.00;;;;;;5041428;28;20075;-49
2022/08/06 05:28:42;;;;;;;5.30;4.30;;;24.50;66.00;;;;;;5043083;28;20492;-48
2022/08/06 05:31:09;;;;;;;4.88;4.13;;;24.50;65.90;;;;;;5043256;28;20028;-48
2022/08/06 05:33:37;;;;;;;6.68;4.20;;;24.50;65.80;;;;;;5041621;28;20645;-50
2022/08/06 05:36:05;;;;;;;5.10;4.28;;;24.50;65.80;;;;;;5025817;28;20040;-49
2022/08/06 05:38:33;;;;;;;5.18;4.05;;;24.50;65.90;;;;;;5041103;28;20033;-49
2022/08/06 05:40:59;;;;;;;4.50;4.07;;;24.40;65.40;;;;;;5022457;28;20061;-50
2022/08/06 05:43:25;;;;;;;5.22;4.00;;;24.40;65.60;;;;;;5022532;28;20072;-49
2022/08/06 05:45:57;;;;;;;4.63;3.78;;;24.40;65.70;;;;;;5022023;28;20795;-50
2022/08/06 05:48:23;;;;;;;4.88;4.00;;;24.40;66.00;;;;;;5022967;28;20087;-49
2022/08/06 05:50:59;;;;;;;5.63;4.32;;;24.40;65.40;;;;;;5021568;28;20088;-49
2022/08/06 05:53:31;;;;;;;4.30;3.67;;;24.40;65.80;;;;;;5022780;28;20057;-49
2022/08/06 05:56:13;;;;;;;5.20;4.15;;;24.40;65.40;;;;;;5022237;28;20029;-50
2022/08/06 05:58:42;;;;;;;5.43;4.25;;;24.40;64.90;;;;;;5023107;28;20661;-49
2022/08/06 06:01:09;;;;;;;4.47;3.90;;;24.50;65.10;;;;;;5022424;28;20095;-51
2022/08/06 06:03:38;;;;;;;5.00;3.90;;;24.40;64.70;;;;;;5023078;28;20634;-51
2022/08/06 06:06:04;;;;;;;4.80;4.13;;;24.50;64.90;;;;;;5021962;28;20021;-50
2022/08/06 06:08:30;;;;;;;5.43;3.97;;;24.50;64.80;;;;;;5028401;28;20035;-49
2022/08/06 06:10:57;;;;;;;5.97;4.00;;;24.50;65.20;;;;;;5022520;28;20037;-50
2022/08/06 06:13:24;;;;;;;6.72;4.30;;;24.50;64.80;;;;;;5021536;28;20040;-50
2022/08/06 06:16:07;;;;;;;5.32;3.65;;;24.50;64.50;;;;;;5029812;28;20400;-50
2022/08/06 06:18:54;;;;;;;4.45;3.55;;;24.60;64.50;;;;;;5031148;28;20104;-49
2022/08/06 06:21:29;;;;;;;4.55;3.47;;;24.60;64.50;;;;;;5040435;28;20021;-49
2022/08/06 06:24:02;;;;;;;5.60;3.50;;;24.70;64.30;;;;;;5026659;28;20037;-48
2022/08/06 06:26:44;;;;;;;5.18;3.50;;;24.70;64.00;;;;;;5021616;28;20045;-51
2022/08/06 06:29:28;;;;;;;4.80;3.25;;;24.70;63.90;;;;;;5022506;28;20041;-51
2022/08/06 06:32:00;;;;;;;4.55;3.60;;;24.70;63.90;;;;;;5021501;28;20034;-49
2022/08/06 06:34:31;;;;;;;3.97;2.90;;;24.70;64.30;;;;;;5022543;28;20044;-48
2022/08/06 06:37:08;;;;;;;4.43;3.08;;;24.70;64.40;;;;;;5040144;28;20025;-50
2022/08/06 06:39:54;;;;;;;3.50;2.45;;;24.70;63.80;;;;;;5039109;28;20037;-50
2022/08/06 06:42:27;;;;;;;4.18;2.60;;;24.80;63.80;;;;;;5039819;28;20025;-49
2022/08/06 06:45:02;;;;;;;3.72;2.13;;;24.80;63.00;;;;;;5040090;28;20106;-50
2022/08/06 06:47:37;;;;;;;3.22;1.85;;;24.80;63.00;;;;;;5039937;28;20405;-49
2022/08/06 06:50:11;;;;;;;3.65;2.30;;;24.80;62.90;;;;;;5037276;28;20021;-49
2022/08/06 06:52:40;;;;;;;2.90;1.75;;;24.80;62.40;;;;;;5041251;28;20810;-50
2022/08/06 06:55:25;;;;;;;4.13;1.95;;;24.80;62.50;;;;;;5039163;28;21226;-51
2022/08/06 06:57:58;;;;;;;3.97;2.13;;;24.80;63.10;;;;;;5036893;28;20397;-51
2022/08/06 07:00:26;;;;;;;4.07;2.30;;;24.80;62.90;;;;;;5039080;28;20040;-50
2022/08/06 07:02:54;;;;;;;3.28;2.03;;;24.90;62.50;;;;;;5025853;28;20048;-50
2022/08/06 07:05:21;;;;;;;3.58;1.40;;;25.00;62.00;;;;;;5034879;28;20033;-49
2022/08/06 07:07:48;;;;;;;2.53;1.40;;;24.90;61.90;;;;;;5044185;28;20629;-49
2022/08/06 07:10:15;;;;;;;2.67;1.33;;;24.90;61.10;;;;;;5030898;28;20037;-50
2022/08/06 07:12:44;;;;;;;2.40;1.17;;;24.90;61.00;;;;;;5024298;28;20034;-50
2022/08/06 07:15:12;;;;;;;2.90;1.20;;;24.90;60.60;;;;;;5024902;28;20048;-48
2022/08/06 07:17:39;;;;;;;1.70;1.00;;;24.90;60.80;;;;;;5044022;28;20120;-50
2022/08/06 07:20:11;;;;;;;1.80;0.85;;;24.80;60.70;;;;;;5044431;28;20040;-49
2022/08/06 07:22:41;;;;;;;1.88;0.90;;;24.80;60.60;;;;;;5044491;28;20033;-50
2022/08/06 07:25:09;;;;;;;2.03;1.05;;;24.90;60.60;;;;;;5031146;28;20052;-51
2022/08/06 07:27:40;;;;;;;1.90;0.82;;;24.90;60.30;;;;;;5025560;28;20510;-49
2022/08/06 07:30:07;;;;;;;1.38;0.80;;;24.90;60.40;;;;;;5024680;28;20045;-50
2022/08/06 07:32:35;;;;;;;2.25;0.95;;;24.90;60.20;;;;;;5025091;28;20037;-49
2022/08/06 07:35:03;;;;;;;2.40;1.08;;;24.90;60.00;;;;;;5029190;28;20025;-50
2022/08/06 07:37:30;;;;;;;2.65;1.00;;;24.90;59.80;;;;;;5042975;28;20135;-51
2022/08/06 07:39:59;;;;;;;1.85;0.70;;;24.90;59.80;;;;;;5042548;28;20505;-50
2022/08/06 07:42:26;;;;;;;1.70;0.93;;;24.80;60.00;;;;;;5041988;28;20162;-50
2022/08/06 07:44:59;;;;;;;1.80;0.88;;;24.80;60.10;;;;;;5043817;28;20396;-50
2022/08/06 07:47:30;;;;;;;2.17;0.73;;;24.80;60.20;;;;;;5043009;28;20082;-50
2022/08/06 07:49:58;;;;;;;1.70;0.70;;;24.80;60.00;;;;;;5042163;28;20029;-49
2022/08/06 07:52:25;;;;;;;1.70;0.80;;;24.80;60.70;;;;;;5035344;28;20034;-49
2022/08/06 07:54:54;;;;;;;3.05;0.80;;;24.80;61.60;;;;;;5029214;28;20128;-48
2022/08/06 07:57:20;;;;;;;1.40;0.70;;;24.80;60.80;;;;;;5044385;28;20029;-49
2022/08/06 07:59:47;;;;;;;1.85;0.80;;;24.80;61.10;;;;;;5042802;28;20021;-49
2022/08/06 08:02:13;;;;;;;1.80;0.80;;;24.90;60.60;;;;;;5041298;28;20530;-50
2022/08/06 08:07:24;;;;;;;1.35;0.70;;;24.90;60.40;;;;;;5043479;28;20078;-50
2022/08/06 08:09:51;;;;;;;2.13;0.75;;;24.90;60.60;;;;;;5042264;28;20021;-47
2022/08/06 08:12:18;;;;;;;1.52;0.90;;;24.90;59.40;;;;;;5042480;28;20497;-51
2022/08/06 08:14:46;;;;;;;1.48;0.60;;;24.90;59.60;;;;;;5040869;28;20651;-50
2022/08/06 08:17:13;;;;;;;2.17;0.85;;;24.90;59.90;;;;;;5042176;28;20087;-49
2022/08/06 08:19:40;;;;;;;2.38;0.82;;;24.90;60.90;;;;;;5025239;28;20055;-51
2022/08/06 08:22:13;;;;;;;2.70;0.80;;;25.00;59.70;;;;;;5043195;28;20052;-49
2022/08/06 08:24:40;;;;;;;1.75;0.80;;;25.00;59.10;;;;;;5040187;28;20021;-50
2022/08/06 08:27:10;;;;;;;2.47;0.60;;;25.00;59.20;;;;;;5043471;28;20428;-49
2022/08/06 08:29:40;;;;;;;1.27;0.70;;;25.00;59.00;;;;;;5036083;28;20264;-48
2022/08/06 08:32:08;;;;;;;1.02;0.50;;;25.00;59.20;;;;;;5038300;28;20039;-49
2022/08/06 08:34:35;;;;;;;1.95;0.60;;;25.00;58.80;;;;;;5037853;28;20453;-48
2022/08/06 08:37:01;;;;;;;1.00;0.60;;;25.00;57.50;;;;;;5038729;28;20021;-49
2022/08/06 08:39:27;;;;;;;1.70;0.60;;;24.90;58.90;;;;;;5037132;28;20091;-52
2022/08/06 08:42:35;;;;;;;1.42;0.57;;;25.00;58.00;;;;;;5038946;28;20025;-48
2022/08/06 08:45:01;;;;;;;1.38;0.57;;;25.00;58.40;;;;;;5022184;28;20045;-49
2022/08/06 08:47:28;;;;;;;1.65;0.50;;;25.00;58.90;;;;;;5023292;28;20963;-48
2022/08/06 08:49:59;;;;;;;1.48;0.60;;;25.00;58.20;;;;;;5023891;28;20029;-49
2022/08/06 08:52:38;;;;;;;0.98;0.50;;;25.00;58.50;;;;;;5023362;28;20018;-48
2022/08/06 08:55:09;;;;;;;0.95;0.40;;;25.10;58.20;;;;;;5021962;28;20108;-53
2022/08/06 08:57:36;;;;;;;2.67;0.65;;;25.10;57.50;;;;;;5023473;28;20025;-49
2022/08/06 09:00:06;;;;;;;3.00;0.80;;;25.10;57.90;;;;;;5021631;28;20779;-49
2022/08/06 09:02:32;;;;;;;3.10;0.60;;;25.10;57.60;;;;;;5022054;28;20289;-48
2022/08/06 09:04:58;;;;;;;1.30;0.50;;;25.10;57.80;;;;;;5023168;28;20036;-48
2022/08/06 09:07:26;;;;;;;1.38;0.60;;;25.20;57.40;;;;;;5022963;28;20029;-50
2022/08/06 09:09:52;;;;;;;1.38;0.70;;;25.20;56.90;;;;;;5022986;28;20064;-48
2022/08/06 09:12:18;;;;;;;1.73;0.50;;;25.20;57.10;;;;;;5022635;28;20528;-50
2022/08/06 09:14:46;;;;;;;1.80;0.88;;;25.20;57.30;;;;;;5024548;28;20804;-49
2022/08/06 09:17:12;;;;;;;1.02;0.55;;;25.20;57.20;;;;;;5042156;28;20105;-49
2022/08/06 09:19:38;;;;;;;1.67;0.65;;;25.20;57.60;;;;;;5042553;28;20029;-50
2022/08/06 09:22:04;;;;;;;1.83;0.60;;;25.30;56.90;;;;;;5041460;28;20036;-49
2022/08/06 09:24:30;;;;;;;1.05;0.45;;;25.20;56.90;;;;;;5035826;28;20485;-49
2022/08/06 09:27:08;;;;;;;0.85;0.40;;;25.30;57.10;;;;;;5023088;28;20032;-51
2022/08/06 09:29:34;;;;;;;1.65;0.60;;;25.30;57.50;;;;;;5023036;28;20024;-48
2022/08/06 09:32:04;;;;;;;2.45;0.77;;;25.30;56.80;;;;;;5022927;28;20036;-47
2022/08/06 09:34:37;;;;;;;0.90;0.50;;;25.30;56.70;;;;;;5039551;28;20022;-49
2022/08/06 09:37:03;;;;;;;0.98;0.45;;;25.30;56.70;;;;;;5041385;28;20079;-49
2022/08/06 09:39:40;;;;;;;0.88;0.57;;;25.30;56.80;;;;;;5039846;28;20032;-47
2022/08/06 09:42:07;;;;;;;1.25;0.50;;;25.30;56.90;;;;;;5041214;28;20039;-47
2022/08/06 09:44:34;;;;;;;1.00;0.60;;;25.40;56.80;;;;;;5041591;28;20032;-47
2022/08/06 09:47:00;;;;;;;1.33;0.50;;;25.40;56.60;;;;;;5041606;28;20028;-47
2022/08/06 09:49:27;;;;;;;1.80;0.77;;;25.40;56.60;;;;;;5041153;28;20037;-48
2022/08/06 09:52:12;;;;;;;1.30;0.50;;;25.40;56.50;;;;;;5041029;28;20100;-48
2022/08/06 09:54:39;;;;;;;2.83;0.93;;;25.50;56.60;;;;;;5039166;28;20044;-49
2022/08/06 09:57:04;;;;;;;1.67;0.55;;;25.50;56.60;;;;;;5031676;28;20085;-49
2022/08/06 09:59:45;;;;;;;4.03;1.20;;;25.50;56.30;;;;;;5038225;28;20021;-47
2022/08/06 10:02:17;;;;;;;5.88;1.88;;;25.60;56.50;;;;;;5041102;28;20091;-49
2022/08/06 10:04:43;;;;;;;9.95;3.88;;;25.60;56.20;;;;;;5035509;28;20029;-50
2022/08/06 10:07:09;;;;;;;19.15;6.03;;;25.60;56.10;;;;;;5023288;28;20072;-50
2022/08/06 10:09:37;;;;;;;20.35;7.07;;;25.70;56.00;;;;;;5023088;28;20029;-47
2022/08/06 10:12:17;;;;;;;22.10;7.70;;;25.70;56.00;;;;;;5023552;28;20063;-49
2022/08/06 10:14:43;;;;;;;21.15;8.18;;;25.70;55.90;;;;;;5023249;28;20678;-49
2022/08/06 10:17:09;;;;;;;18.60;6.68;;;25.70;55.80;;;;;;5021714;28;20037;-50
2022/08/06 10:19:35;;;;;;;14.55;5.72;;;25.70;55.70;;;;;;5022646;28;20155;-48
2022/08/06 10:22:26;;;;;;;18.38;5.60;;;25.80;55.70;;;;;;5022780;28;20042;-48
2022/08/06 10:24:54;;;;;;;12.40;5.15;;;25.80;55.70;;;;;;5022075;28;20034;-47
2022/08/06 10:27:23;;;;;;;14.02;5.35;;;25.80;55.60;;;;;;5023274;28;20112;-48
2022/08/06 10:29:53;;;;;;;11.43;4.75;;;25.80;55.50;;;;;;5022921;28;20045;-47
2022/08/06 10:33:03;;;;;;;10.38;4.50;;;25.90;55.40;;;;;;5023160;28;20025;-47
2022/08/06 10:35:30;;;;;;;11.40;4.18;;;25.90;55.40;;;;;;5021434;28;20187;-48
2022/08/06 10:38:03;;;;;;;10.05;4.35;;;25.90;55.20;;;;;;5026956;28;20123;-47
2022/08/06 10:40:30;;;;;;;8.63;3.58;;;25.90;55.20;;;;;;5026450;28;20160;-49
2022/08/06 10:42:56;;;;;;;9.93;4.35;;;26.00;55.70;;;;;;5026457;28;20547;-48
2022/08/06 10:45:23;;;;;;;7.88;3.30;;;26.00;55.50;;;;;;5026817;28;20083;-50
2022/08/06 10:47:49;;;;;;;10.50;4.00;;;26.00;55.50;;;;;;5026624;28;20045;-49
2022/08/06 10:50:15;;;;;;;9.27;3.30;;;26.00;55.30;;;;;;5026972;28;20112;-49
2022/08/06 10:52:43;;;;;;;8.25;2.92;;;26.00;55.20;;;;;;5026553;28;20238;-49
2022/08/06 10:55:10;;;;;;;7.82;2.95;;;26.00;54.90;;;;;;5026646;28;20037;-50
2022/08/06 10:57:39;;;;;;;9.07;2.97;;;26.10;54.90;;;;;;5026397;28;20263;-50
2022/08/06 11:00:06;;;;;;;9.55;3.13;;;26.00;54.80;;;;;;5026902;28;20034;-47
2022/08/06 11:02:48;;;;;;;7.45;2.88;;;26.10;55.00;;;;;;5041050;28;20027;-48
2022/08/06 11:05:17;;;;;;;7.55;2.60;;;26.10;54.90;;;;;;5025602;28;20034;-47
2022/08/06 11:08:17;;;;;;;8.05;2.50;;;26.10;54.90;;;;;;5026041;28;20045;-47
2022/08/06 11:10:57;;;;;;;5.97;2.35;;;26.10;54.90;;;;;;5028293;28;20091;-49
2022/08/06 11:13:23;;;;;;;5.50;2.40;;;26.10;55.00;;;;;;5026094;28;20033;-49
2022/08/06 11:15:50;;;;;;;6.80;2.58;;;26.20;55.00;;;;;;5025784;28;20401;-49
2022/08/06 11:18:16;;;;;;;7.32;2.85;;;26.20;54.60;;;;;;5026651;28;20637;-48
2022/08/06 11:20:47;;;;;;;5.80;2.17;;;26.20;54.60;;;;;;5026206;28;20071;-47
2022/08/06 11:23:13;;;;;;;7.95;2.53;;;26.20;54.50;;;;;;5026507;28;20274;-48
2022/08/06 11:25:42;;;;;;;6.20;2.20;;;26.20;54.60;;;;;;5025478;28;20084;-49
2022/08/06 11:28:15;;;;;;;8.88;2.88;;;26.30;54.80;;;;;;5026295;28;20087;-47
2022/08/06 11:30:46;;;;;;;6.50;2.50;;;26.30;54.60;;;;;;5026032;28;20454;-48
2022/08/06 11:33:19;;;;;;;4.80;1.80;;;26.30;54.60;;;;;;5026459;28;20030;-49
2022/08/06 11:35:49;;;;;;;6.18;2.30;;;26.30;54.60;;;;;;5024642;28;20036;-50
2022/08/06 11:38:48;;;;;;;5.85;2.42;;;26.30;54.60;;;;;;5026206;28;20044;-48
2022/08/06 11:41:30;;;;;;;5.60;2.33;;;26.30;54.70;;;;;;5025553;28;20077;-48
2022/08/06 11:43:58;;;;;;;4.53;2.00;;;26.30;54.60;;;;;;5026488;28;20120;-49
2022/08/06 11:46:37;;;;;;;5.32;2.10;;;26.30;55.00;;;;;;5024269;28;20500;-49
2022/08/06 11:49:03;;;;;;;5.00;1.95;;;26.40;54.20;;;;;;5025424;28;20036;-48
2022/08/06 11:51:55;;;;;;;7.03;2.50;;;26.40;54.40;;;;;;5026147;28;20170;-47
2022/08/06 11:54:24;;;;;;;6.22;2.63;;;26.40;54.30;;;;;;5025335;28;20690;-47
2022/08/06 11:57:01;;;;;;;4.57;1.77;;;26.40;54.10;;;;;;5025693;28;20044;-50
2022/08/06 11:59:32;;;;;;;3.95;1.60;;;26.40;54.30;;;;;;5025274;28;20537;-48
2022/08/06 12:01:59;;;;;;;6.03;2.08;;;26.40;54.00;;;;;;5025609;28;20060;-49
2022/08/06 12:04:38;;;;;;;6.05;2.25;;;26.40;54.20;;;;;;5025349;28;20049;-48
2022/08/06 12:07:28;;;;;;;4.10;1.90;;;26.50;54.30;;;;;;5025622;28;20071;-48
2022/08/06 12:10:06;;;;;;;6.25;2.08;;;26.50;54.30;;;;;;5031762;28;20029;-47
2022/08/06 12:12:45;;;;;;;4.45;1.73;;;26.50;54.30;;;;;;5045286;28;20493;-49
2022/08/06 12:15:19;;;;;;;4.55;1.40;;;26.50;54.20;;;;;;5041788;28;20108;-49
2022/08/06 12:17:56;;;;;;;4.50;1.45;;;26.50;54.20;;;;;;5025400;28;20688;-49
2022/08/06 12:20:39;;;;;;;5.72;2.00;;;26.50;54.20;;;;;;5024994;28;20045;-49
2022/08/06 12:23:14;;;;;;;4.47;2.10;;;26.50;54.10;;;;;;5024037;28;20028;-50
2022/08/06 12:25:46;;;;;;;6.07;2.28;;;26.60;53.90;;;;;;5024334;28;20029;-50
2022/08/06 12:28:14;;;;;;;5.15;1.67;;;26.60;53.90;;;;;;5025444;28;20022;-49
2022/08/06 12:30:59;;;;;;;4.10;1.25;;;26.60;53.80;;;;;;5025262;28;20065;-48
2022/08/06 12:33:25;;;;;;;4.63;1.80;;;26.60;53.80;;;;;;5024781;28;20029;-50
2022/08/06 12:36:00;;;;;;;3.95;1.58;;;26.60;53.70;;;;;;5024873;28;20048;-50
2022/08/06 12:38:29;;;;;;;3.97;1.60;;;26.60;53.60;;;;;;5024830;28;20398;-49
2022/08/06 12:41:00;;;;;;;4.18;1.67;;;26.60;53.70;;;;;;5024897;28;20033;-48
2022/08/06 12:43:28;;;;;;;3.75;1.95;;;26.60;53.70;;;;;;5024806;28;20028;-50
2022/08/06 12:46:02;;;;;;;4.55;1.50;;;26.60;53.60;;;;;;5024616;28;20029;-49
2022/08/06 12:48:28;;;;;;;4.65;1.70;;;26.70;53.50;;;;;;5024329;28;20025;-49
2022/08/06 12:51:09;;;;;;;4.72;1.90;;;26.60;53.50;;;;;;5024753;28;20025;-49
2022/08/06 12:53:48;;;;;;;5.20;1.83;;;26.70;53.60;;;;;;5024149;28;20028;-50
2022/08/06 12:56:14;;;;;;;3.70;1.60;;;26.70;53.50;;;;;;5024273;28;20033;-47
2022/08/06 12:58:41;;;;;;;3.78;1.88;;;26.70;53.40;;;;;;5024341;28;20037;-50
2022/08/06 13:01:10;;;;;;;3.42;1.42;;;26.70;53.30;;;;;;5024114;28;20057;-49
2022/08/06 13:03:39;;;;;;;3.97;1.55;;;26.70;53.40;;;;;;5024700;28;20545;-48
2022/08/06 13:06:07;;;;;;;5.45;2.20;;;26.70;53.50;;;;;;5022642;28;20099;-48